createdAt,value
2022-09-26T00:01:54.667Z,77.80
2022-09-26T00:04:43.128Z,79.03
2022-09-26T00:07:32.800Z,77.17
2022-09-26T00:10:21.200Z,76.17
2022-09-26T00:13:09.554Z,76.43
2022-09-26T00:15:58.537Z,78.53
2022-09-26T00:18:50.397Z,74.80
2022-09-26T00:21:39.329Z,75.47
2022-09-26T00:24:29.033Z,81.17
2022-09-26T00:27:17.416Z,84.43
2022-09-26T00:30:06.897Z,81.27
2022-09-26T00:32:55.255Z,79.93
2022-09-26T00:35:51.372Z,79.57
2022-09-26T00:38:40.657Z,78.23
2022-09-26T00:41:30.451Z,77.30
2022-09-26T00:44:46.360Z,74.83
2022-09-26T00:47:43.861Z,77.47
2022-09-26T00:50:37.539Z,73.77
2022-09-26T00:53:34.639Z,76.70
2022-09-26T00:56:27.700Z,75.30
2022-09-26T00:59:24.264Z,75.13
2022-09-26T01:02:12.922Z,76.50
2022-09-26T01:05:02.758Z,75.73
2022-09-26T01:07:53.646Z,73.73
2022-09-26T01:10:43.212Z,73.50
2022-09-26T01:13:34.302Z,70.93
2022-09-26T01:16:24.107Z,68.47
2022-09-26T01:19:23.864Z,68.60
2022-09-26T01:22:47.871Z,71.60
2022-09-26T01:25:57.514Z,75.00
2022-09-26T01:29:06.125Z,78.40
2022-09-26T01:32:22.790Z,78.43
2022-09-26T01:35:15.504Z,79.03
2022-09-26T01:38:17.686Z,77.37
2022-09-26T01:41:18.726Z,80.90
2022-09-26T01:44:16.938Z,77.07
2022-09-26T01:47:14.678Z,77.77
2022-09-26T01:50:14.153Z,80.87
2022-09-26T01:53:07.366Z,80.83
2022-09-26T01:56:02.239Z,81.33
2022-09-26T01:58:54.869Z,82.70
2022-09-26T02:01:46.292Z,80.43
2022-09-26T02:04:39.853Z,79.93
2022-09-26T02:07:35.336Z,81.93
2022-09-26T02:10:29.641Z,77.00
2022-09-26T02:13:23.147Z,70.47
2022-09-26T02:16:19.506Z,70.77
2022-09-26T02:19:13.809Z,70.70
2022-09-26T02:22:04.201Z,71.63
2022-09-26T02:24:53.857Z,75.40
2022-09-26T02:27:42.904Z,75.33
2022-09-26T02:30:31.733Z,77.40
2022-09-26T02:33:21.254Z,79.10
2022-09-26T02:36:11.812Z,78.63
2022-09-26T02:39:01.838Z,81.20
2022-09-26T02:42:10.261Z,84.93
2022-09-26T02:45:17.394Z,77.97
2022-09-26T02:48:29.015Z,78.67
2022-09-26T02:51:34.226Z,79.50
2022-09-26T02:54:32.431Z,79.47
2022-09-26T02:57:33.942Z,80.17
2022-09-26T03:00:25.769Z,76.17
2022-09-26T03:03:22.604Z,73.30
2022-09-26T03:06:18.018Z,70.17
2022-09-26T03:09:09.258Z,66.87
2022-09-26T03:12:03.362Z,67.20
2022-09-26T03:14:57.882Z,67.73
2022-09-26T03:17:53.065Z,71.90
2022-09-26T03:20:42.674Z,73.13
2022-09-26T03:23:31.518Z,77.43
2022-09-26T03:26:25.886Z,78.20
2022-09-26T03:29:20.026Z,76.10
2022-09-26T03:32:08.445Z,74.00
2022-09-26T03:34:58.303Z,73.17
2022-09-26T03:37:47.956Z,70.37
2022-09-26T03:40:37.950Z,69.87
2022-09-26T03:43:49.760Z,67.00
2022-09-26T03:46:40.354Z,69.60
2022-09-26T03:49:30.321Z,69.50
2022-09-26T03:52:18.853Z,70.30
2022-09-26T03:55:07.603Z,72.80
2022-09-26T03:57:57.515Z,69.23
2022-09-26T04:00:52.252Z,69.73
2022-09-26T04:03:49.998Z,69.93
2022-09-26T04:06:39.375Z,71.07
2022-09-26T04:09:28.213Z,73.80
2022-09-26T04:12:16.929Z,77.77
2022-09-26T04:15:07.706Z,76.23
2022-09-26T04:17:56.920Z,78.27
2022-09-26T04:20:47.585Z,78.60
2022-09-26T04:23:44.162Z,84.00
2022-09-26T04:26:32.948Z,83.07
2022-09-26T04:29:21.385Z,83.07
2022-09-26T04:32:19.653Z,78.70
2022-09-26T04:35:27.963Z,83.13
2022-09-26T04:38:18.746Z,81.40
2022-09-26T04:41:09.846Z,81.13
2022-09-26T04:43:59.655Z,77.67
2022-09-26T04:46:48.172Z,79.80
2022-09-26T04:49:37.300Z,79.33
2022-09-26T04:52:26.673Z,77.90
2022-09-26T04:55:16.643Z,78.50
2022-09-26T04:58:05.006Z,79.00
2022-09-26T05:00:53.371Z,76.93
2022-09-26T05:03:58.586Z,75.87
2022-09-26T05:06:49.978Z,76.83
2022-09-26T05:09:49.247Z,75.27
2022-09-26T05:12:41.164Z,75.57
2022-09-26T05:15:29.534Z,82.50
2022-09-26T05:18:17.900Z,73.53
2022-09-26T05:21:07.733Z,71.73
2022-09-26T05:24:13.623Z,71.17
2022-09-26T05:27:02.661Z,69.13
2022-09-26T05:29:57.091Z,64.70
2022-09-26T05:32:48.590Z,66.67
2022-09-26T05:35:38.421Z,63.70
2022-09-26T05:38:26.825Z,64.30
2022-09-26T05:41:14.588Z,63.67
2022-09-26T05:44:03.202Z,64.57
2022-09-26T05:46:53.882Z,67.77
2022-09-26T05:49:42.427Z,66.27
2022-09-26T05:52:34.638Z,63.23
2022-09-26T05:55:23.034Z,65.40
2022-09-26T05:58:32.262Z,63.60
2022-09-26T06:01:34.922Z,62.20
2022-09-26T06:04:34.647Z,60.47
2022-09-26T06:07:49.100Z,63.20
2022-09-26T06:11:01.403Z,60.67
2022-09-26T06:13:50.842Z,60.50
2022-09-26T06:16:39.384Z,57.70
2022-09-26T06:19:28.606Z,60.10
2022-09-26T06:22:18.282Z,58.00
2022-09-26T06:25:07.658Z,58.10
2022-09-26T06:27:59.925Z,60.03
2022-09-26T06:30:49.210Z,60.70
2022-09-26T06:33:51.412Z,60.33
2022-09-26T06:36:48.172Z,61.20
2022-09-26T06:39:37.958Z,59.67
2022-09-26T06:42:27.859Z,59.80
2022-09-26T06:45:34.866Z,59.87
2022-09-26T06:48:42.455Z,61.30
2022-09-26T06:51:42.660Z,60.53
2022-09-26T06:54:31.902Z,61.37
2022-09-26T06:57:21.933Z,57.80
2022-09-26T07:00:13.447Z,57.50
2022-09-26T07:03:26.784Z,56.90
2022-09-26T07:06:27.177Z,55.63
2022-09-26T07:09:17.230Z,54.63
2022-09-26T07:12:15.973Z,53.53
2022-09-26T07:15:07.512Z,53.67
2022-09-26T07:17:58.134Z,52.20
2022-09-26T07:21:07.559Z,53.57
2022-09-26T07:24:14.640Z,51.40
2022-09-26T07:27:04.204Z,51.60
2022-09-26T07:29:52.862Z,52.60
2022-09-26T07:32:47.916Z,51.37
2022-09-26T07:36:05.942Z,52.50
2022-09-26T07:38:54.399Z,50.23
2022-09-26T07:41:45.976Z,48.87
2022-09-26T07:48:02.466Z,46.80
2022-09-26T07:51:12.033Z,47.67
2022-09-26T07:54:09.609Z,44.50
2022-09-26T07:56:58.002Z,45.53
2022-09-26T07:59:59.560Z,44.53
2022-09-26T08:03:10.799Z,45.10
2022-09-26T08:06:01.639Z,49.27
2022-09-26T08:08:54.232Z,44.43
2022-09-26T08:12:02.415Z,44.13
2022-09-26T08:15:18.092Z,42.97
2022-09-26T08:18:07.254Z,43.93
2022-09-26T08:20:57.099Z,43.27
2022-09-26T08:23:46.911Z,44.13
2022-09-26T08:27:10.730Z,41.60
2022-09-26T08:30:04.520Z,44.40
2022-09-26T08:33:06.834Z,44.97
2022-09-26T08:36:05.143Z,45.43
2022-09-26T08:39:12.359Z,45.57
2022-09-26T08:42:34.519Z,46.47
2022-09-26T08:46:01.969Z,48.47
2022-09-26T08:49:17.409Z,47.13
2022-09-26T08:52:13.896Z,47.60
2022-09-26T08:55:07.202Z,48.63
2022-09-26T08:58:00.079Z,48.53
2022-09-26T09:00:52.722Z,52.63
2022-09-26T09:03:51.160Z,51.77
2022-09-26T09:06:39.609Z,53.10
2022-09-26T09:09:29.492Z,52.23
2022-09-26T09:12:49.279Z,54.77
2022-09-26T09:16:08.687Z,69.17
2022-09-26T09:19:42.370Z,58.53
2022-09-26T09:23:07.834Z,57.50
2022-09-26T09:29:49.397Z,54.97
2022-09-26T09:32:59.662Z,58.23
2022-09-26T09:36:22.151Z,56.97
2022-09-26T09:39:35.340Z,58.73
2022-09-26T09:42:44.559Z,60.23
2022-09-26T09:45:39.362Z,57.70
2022-09-26T09:48:29.038Z,58.83
2022-09-26T09:51:27.868Z,58.67
2022-09-26T09:54:40.153Z,58.87
2022-09-26T09:57:43.975Z,60.30
2022-09-26T10:00:37.093Z,62.50
2022-09-26T10:03:41.079Z,61.17
2022-09-26T10:06:45.417Z,63.50
2022-09-26T10:09:41.313Z,63.70
2022-09-26T10:12:51.438Z,63.47
2022-09-26T10:16:02.528Z,64.83
2022-09-26T10:19:13.321Z,65.80
2022-09-26T10:22:02.153Z,65.83
2022-09-26T10:24:51.644Z,65.97
2022-09-26T10:27:52.199Z,63.27
2022-09-26T10:30:50.097Z,65.60
2022-09-26T10:33:46.161Z,63.37
2022-09-26T10:36:38.184Z,60.20
2022-09-26T10:39:47.916Z,57.97
2022-09-26T10:42:38.291Z,58.40
2022-09-26T10:45:36.483Z,55.63
2022-09-26T10:49:03.232Z,55.93
2022-09-26T10:52:04.663Z,52.70
2022-09-26T10:54:59.793Z,52.85
2022-09-26T10:57:52.020Z,52.17
2022-09-26T11:00:45.565Z,51.28
2022-09-26T11:03:42.592Z,51.40
2022-09-26T11:06:51.412Z,47.97
2022-09-26T11:09:52.446Z,48.47
2022-09-26T11:13:18.907Z,43.13
2022-09-26T11:16:15.652Z,41.75
2022-09-26T11:19:16.001Z,40.67
2022-09-26T11:22:14.370Z,41.22
2022-09-26T11:25:08.916Z,41.33
2022-09-26T11:28:07.195Z,41.13
2022-09-26T11:31:28.509Z,42.55
2022-09-26T11:34:43.277Z,42.22
2022-09-26T11:37:43.368Z,40.55
2022-09-26T11:40:44.000Z,40.35
2022-09-26T11:43:45.593Z,40.55
2022-09-26T11:46:56.632Z,32.42
2022-09-26T11:50:26.840Z,28.38
2022-09-26T11:53:55.870Z,29.08
2022-09-26T11:56:55.219Z,28.17
2022-09-26T12:00:06.354Z,26.58
2022-09-26T12:03:36.338Z,26.50
2022-09-26T12:06:33.689Z,23.60
2022-09-26T12:09:42.286Z,21.40
2022-09-26T12:12:41.974Z,22.25
2022-09-26T12:15:37.876Z,22.98
2022-09-26T12:18:36.207Z,23.15
2022-09-26T12:22:02.966Z,21.88
2022-09-26T12:25:17.857Z,20.40
2022-09-26T12:28:25.254Z,18.75
2022-09-26T12:31:21.284Z,18.95
2022-09-26T12:34:29.544Z,19.25
2022-09-26T12:37:46.055Z,15.88
2022-09-26T12:40:39.640Z,15.80
2022-09-26T12:43:56.704Z,16.73
2022-09-26T12:47:03.487Z,16.90
2022-09-26T12:50:11.621Z,15.82
2022-09-26T12:53:20.722Z,17.90
2022-09-26T12:56:11.282Z,14.45
2022-09-26T12:59:16.668Z,14.48
2022-09-26T13:02:33.715Z,13.15
2022-09-26T13:05:50.443Z,13.60
2022-09-26T13:08:53.299Z,12.60
2022-09-26T13:11:53.408Z,12.82
2022-09-26T13:15:01.419Z,13.88
2022-09-26T13:17:55.217Z,12.30
2022-09-26T13:20:51.110Z,12.60
2022-09-26T13:23:44.802Z,11.70
2022-09-26T13:26:38.787Z,11.80
2022-09-26T13:29:33.829Z,11.50
2022-09-26T13:32:27.840Z,11.88
2022-09-26T13:35:20.951Z,12.35
2022-09-26T13:38:25.381Z,11.50
2022-09-26T13:41:29.647Z,10.50
2022-09-26T13:44:32.286Z,10.35
2022-09-26T13:47:33.762Z,9.98
2022-09-26T13:50:27.186Z,9.15
2022-09-26T13:53:27.135Z,9.23
2022-09-26T13:56:44.249Z,10.18
2022-09-26T13:59:36.045Z,9.18
2022-09-26T14:02:28.527Z,8.90
2022-09-26T14:05:45.772Z,7.60
2022-09-26T14:08:55.577Z,8.75
2022-09-26T14:11:49.865Z,8.13
2022-09-26T14:14:46.439Z,7.35
2022-09-26T14:18:17.182Z,7.32
2022-09-26T14:21:29.172Z,7.78
2022-09-26T14:24:41.605Z,7.82
2022-09-26T14:27:44.354Z,7.47
2022-09-26T14:30:33.474Z,7.20
2022-09-26T14:33:25.306Z,7.50
2022-09-26T14:36:28.740Z,7.32
2022-09-26T14:39:33.436Z,7.45
2022-09-26T14:42:27.964Z,7.55
2022-09-26T14:45:23.197Z,7.30
2022-09-26T14:48:18.706Z,7.03
2022-09-26T14:51:27.348Z,7.80
2022-09-26T14:54:23.700Z,7.57
2022-09-26T14:57:21.999Z,7.35
2022-09-26T15:00:37.154Z,7.20
2022-09-26T15:03:25.569Z,7.65
2022-09-26T15:06:15.177Z,8.32
2022-09-26T15:09:11.368Z,8.25
2022-09-26T15:12:02.324Z,8.70
2022-09-26T15:14:55.482Z,8.65
2022-09-26T15:17:50.570Z,7.95
2022-09-26T15:20:45.869Z,8.30
2022-09-26T15:23:35.908Z,8.20
2022-09-26T15:26:27.533Z,8.55
2022-09-26T15:29:17.415Z,9.05
2022-09-26T15:32:06.945Z,8.38
2022-09-26T15:34:58.111Z,8.27
2022-09-26T15:37:46.718Z,7.93
2022-09-26T15:40:35.172Z,8.70
2022-09-26T15:43:22.690Z,8.65
2022-09-26T15:46:23.673Z,10.30
2022-09-26T15:49:15.183Z,8.77
2022-09-26T15:52:06.305Z,9.43
2022-09-26T15:54:55.186Z,11.00
2022-09-26T15:57:44.360Z,12.40
2022-09-26T16:00:36.665Z,11.88
2022-09-26T16:03:45.491Z,11.93
2022-09-26T16:06:35.500Z,12.85
2022-09-26T16:09:32.501Z,14.07
2022-09-26T16:12:23.735Z,14.18
2022-09-26T16:15:17.868Z,15.68
2022-09-26T16:18:07.077Z,20.48
2022-09-26T16:21:16.187Z,22.15
2022-09-26T16:24:28.088Z,17.48
2022-09-26T16:27:24.571Z,18.70
2022-09-26T16:30:37.721Z,20.83
2022-09-26T16:33:32.231Z,21.02
2022-09-26T16:36:23.582Z,21.10
2022-09-26T16:39:21.154Z,22.58
2022-09-26T16:42:17.887Z,23.05
2022-09-26T16:45:15.126Z,25.00
2022-09-26T16:48:04.505Z,24.80
2022-09-26T16:51:13.656Z,24.92
2022-09-26T16:54:20.824Z,24.90
2022-09-26T16:57:17.761Z,27.53
2022-09-26T17:00:33.786Z,26.33
2022-09-26T17:03:25.211Z,27.53
2022-09-26T17:06:13.485Z,27.07
2022-09-26T17:09:08.912Z,28.60
2022-09-26T17:12:00.179Z,27.87
2022-09-26T17:14:52.143Z,29.37
2022-09-26T17:17:41.928Z,30.13
2022-09-26T17:20:30.719Z,30.43
2022-09-26T17:23:39.520Z,31.23
2022-09-26T17:26:28.190Z,33.97
2022-09-26T17:29:21.172Z,33.93
2022-09-26T17:32:13.650Z,34.40
2022-09-26T17:35:05.709Z,35.50
2022-09-26T17:37:54.748Z,36.43
2022-09-26T17:40:45.874Z,36.67
2022-09-26T17:43:35.239Z,37.37
2022-09-26T17:46:23.868Z,36.30
2022-09-26T17:49:16.884Z,35.93
2022-09-26T17:52:24.056Z,37.90
2022-09-26T17:55:13.047Z,39.30
2022-09-26T17:58:02.635Z,41.23
2022-09-26T18:00:52.865Z,42.33
2022-09-26T18:03:41.203Z,40.13
2022-09-26T18:06:33.201Z,41.77
2022-09-26T18:09:23.439Z,40.57
2022-09-26T18:12:17.648Z,40.87
2022-09-26T18:15:06.652Z,42.43
2022-09-26T18:17:55.238Z,40.57
2022-09-26T18:20:45.617Z,41.13
2022-09-26T18:23:42.534Z,43.57
2022-09-26T18:26:34.620Z,42.97
2022-09-26T18:29:30.021Z,43.97
2022-09-26T18:32:26.642Z,45.47
2022-09-26T18:35:17.095Z,45.73
2022-09-26T18:38:05.558Z,46.00
2022-09-26T18:40:55.996Z,45.77
2022-09-26T18:43:46.872Z,45.87
2022-09-26T18:46:36.585Z,47.10
2022-09-26T18:49:26.824Z,49.23
2022-09-26T18:52:17.594Z,50.47
2022-09-26T18:55:31.832Z,53.40
2022-09-26T18:58:26.703Z,53.87
2022-09-26T19:01:22.704Z,56.03
2022-09-26T19:04:14.937Z,56.43
2022-09-26T19:07:08.612Z,57.93
2022-09-26T19:09:57.345Z,57.70
2022-09-26T19:12:45.806Z,58.87
2022-09-26T19:15:34.462Z,61.30
2022-09-26T19:18:24.359Z,62.63
2022-09-26T19:21:19.273Z,62.97
2022-09-26T19:24:21.265Z,62.03
2022-09-26T19:27:15.219Z,66.70
2022-09-26T19:30:06.439Z,64.37
2022-09-26T19:32:57.632Z,67.80
2022-09-26T19:35:47.604Z,69.53
2022-09-26T19:38:36.062Z,66.97
2022-09-26T19:41:24.447Z,70.00
2022-09-26T19:44:13.406Z,71.67
2022-09-26T19:47:03.214Z,72.30
2022-09-26T19:49:53.566Z,74.30
2022-09-26T19:52:43.589Z,73.20
2022-09-26T19:55:32.729Z,73.53
2022-09-26T19:58:23.593Z,71.13
2022-09-26T20:01:16.810Z,70.30
2022-09-26T20:04:05.308Z,70.73
2022-09-26T20:06:53.768Z,71.17
2022-09-26T20:09:43.942Z,72.07
2022-09-26T20:12:32.361Z,69.13
2022-09-26T20:15:21.275Z,73.63
2022-09-26T20:18:14.233Z,76.20
2022-09-26T20:21:02.646Z,71.37
2022-09-26T20:23:51.034Z,72.37
2022-09-26T20:26:42.719Z,71.97
2022-09-26T20:29:51.114Z,77.20
2022-09-26T20:32:40.807Z,81.10
2022-09-26T20:35:35.127Z,72.13
2022-09-26T20:38:30.651Z,74.50
2022-09-26T20:41:24.350Z,75.23
2022-09-26T20:44:18.037Z,76.93
2022-09-26T20:47:06.662Z,75.13
2022-09-26T20:49:59.156Z,76.27
2022-09-26T20:52:47.651Z,80.40
2022-09-26T20:55:36.763Z,81.13
2022-09-26T20:58:26.352Z,80.10
2022-09-26T21:01:17.529Z,79.13
2022-09-26T21:04:06.409Z,81.93
2022-09-26T21:06:54.737Z,82.73
2022-09-26T21:09:43.128Z,83.93
2022-09-26T21:12:31.425Z,85.63
2022-09-26T21:15:20.125Z,82.97
2022-09-26T21:18:22.608Z,85.33
2022-09-26T21:21:22.293Z,91.60
2022-09-26T21:24:32.330Z,85.00
2022-09-26T21:27:21.143Z,89.67
2022-09-26T21:30:14.657Z,90.77
2022-09-26T21:33:03.023Z,91.90
2022-09-26T21:35:53.110Z,92.70
2022-09-26T21:38:41.423Z,90.80
2022-09-26T21:41:29.978Z,90.90
2022-09-26T21:44:23.399Z,92.90
2022-09-26T21:47:11.775Z,91.73
2022-09-26T21:50:00.322Z,90.47
2022-09-26T21:52:52.420Z,92.57
2022-09-26T21:55:46.651Z,90.87
2022-09-26T21:58:39.120Z,91.70
2022-09-26T22:01:27.513Z,92.13
2022-09-26T22:04:15.881Z,81.27
2022-09-26T22:07:04.275Z,81.87
2022-09-26T22:09:53.985Z,82.47
2022-09-26T22:12:42.355Z,78.70
2022-09-26T22:15:30.979Z,85.83
2022-09-26T22:18:19.310Z,91.10
2022-09-26T22:21:08.214Z,95.63
2022-09-26T22:23:56.509Z,97.57
2022-09-26T22:26:46.385Z,98.00
2022-09-26T22:29:34.824Z,96.67
2022-09-26T22:32:23.373Z,93.30
2022-09-26T22:35:11.805Z,90.23
2022-09-26T22:38:00.077Z,91.43
2022-09-26T22:40:57.157Z,87.70
2022-09-26T22:43:49.237Z,87.97
2022-09-26T22:46:38.446Z,87.20
2022-09-26T22:49:26.971Z,85.33
2022-09-26T22:52:15.294Z,86.93
2022-09-26T22:55:03.698Z,88.30
2022-09-26T22:57:52.154Z,86.90
2022-09-26T23:00:41.909Z,85.03
2022-09-26T23:03:30.183Z,83.13
2022-09-26T23:06:18.736Z,84.33
2022-09-26T23:09:07.227Z,83.27
2022-09-26T23:11:55.586Z,82.83
2022-09-26T23:14:43.933Z,88.37
2022-09-26T23:17:33.634Z,85.57
2022-09-26T23:20:22.145Z,83.00
2022-09-26T23:23:11.494Z,86.67
2022-09-26T23:25:59.955Z,86.70
2022-09-26T23:28:48.301Z,84.93
2022-09-26T23:31:36.748Z,83.37
2022-09-26T23:34:26.610Z,83.30
2022-09-26T23:37:14.991Z,83.30
2022-09-26T23:40:03.820Z,185.10
2022-09-26T23:42:52.179Z,80.00
2022-09-26T23:45:42.005Z,72.03
2022-09-26T23:48:30.519Z,72.10
2022-09-26T23:51:20.270Z,72.23
2022-09-26T23:54:08.810Z,70.60
2022-09-26T23:56:57.162Z,66.20
2022-09-26T23:59:45.542Z,62.50
